createdAt,value
2023-02-19T00:01:47.396Z,37.16
2023-02-19T00:04:16.620Z,37.05
2023-02-19T00:06:44.722Z,37.44
2023-02-19T00:09:13.275Z,37.42
2023-02-19T00:11:40.606Z,37.29
2023-02-19T00:14:08.157Z,37.07
2023-02-19T00:16:37.198Z,37.48
2023-02-19T00:19:06.902Z,37.17
2023-02-19T00:21:33.763Z,37.25
2023-02-19T00:24:05.520Z,37.13
2023-02-19T00:26:32.944Z,36.96
2023-02-19T00:29:01.202Z,37.04
2023-02-19T00:31:33.015Z,37.37
2023-02-19T00:34:03.309Z,37.27
2023-02-19T00:36:30.917Z,37.23
2023-02-19T00:38:57.588Z,37.40
2023-02-19T00:41:26.789Z,37.21
2023-02-19T00:43:56.435Z,37.53
2023-02-19T00:46:25.158Z,37.26
2023-02-19T00:48:54.569Z,37.31
2023-02-19T00:51:23.238Z,37.17
2023-02-19T00:53:50.419Z,37.38
2023-02-19T00:56:17.383Z,37.34
2023-02-19T00:58:44.071Z,37.90
2023-02-19T01:01:11.686Z,37.59
2023-02-19T01:03:39.537Z,37.20
2023-02-19T01:06:08.672Z,37.59
2023-02-19T01:08:35.717Z,37.77
2023-02-19T01:11:03.714Z,37.74
2023-02-19T01:13:30.401Z,37.14
2023-02-19T01:16:20.313Z,37.24
2023-02-19T01:18:48.423Z,37.28
2023-02-19T01:21:18.250Z,37.11
2023-02-19T01:23:45.018Z,37.42
2023-02-19T01:26:18.161Z,36.99
2023-02-19T01:28:45.042Z,37.37
2023-02-19T01:31:18.633Z,37.53
2023-02-19T01:33:54.415Z,37.34
2023-02-19T01:36:21.546Z,37.70
2023-02-19T01:38:48.601Z,37.71
2023-02-19T01:41:21.560Z,37.49
2023-02-19T01:44:00.233Z,37.56
2023-02-19T01:46:34.980Z,37.15
2023-02-19T01:49:25.946Z,37.66
2023-02-19T01:51:56.464Z,37.14
2023-02-19T01:54:26.576Z,37.57
2023-02-19T01:56:55.539Z,37.06
2023-02-19T01:59:22.498Z,37.31
2023-02-19T02:01:49.654Z,37.06
2023-02-19T02:04:18.655Z,37.00
2023-02-19T02:06:56.600Z,37.17
2023-02-19T02:09:46.249Z,37.38
2023-02-19T02:12:13.094Z,37.43
2023-02-19T02:14:45.257Z,37.46
2023-02-19T02:17:48.743Z,37.22
2023-02-19T02:20:15.307Z,37.44
2023-02-19T02:22:57.834Z,37.07
2023-02-19T02:25:36.453Z,37.27
2023-02-19T02:28:21.480Z,37.29
2023-02-19T02:30:56.516Z,37.10
2023-02-19T02:33:39.598Z,36.93
2023-02-19T02:36:16.609Z,37.56
2023-02-19T02:38:45.286Z,37.25
2023-02-19T02:41:14.028Z,37.47
2023-02-19T02:43:40.945Z,36.96
2023-02-19T02:46:11.376Z,37.15
2023-02-19T02:48:59.988Z,37.08
2023-02-19T02:51:28.512Z,36.96
2023-02-19T02:54:19.821Z,37.25
2023-02-19T02:56:48.886Z,37.00
2023-02-19T02:59:17.720Z,37.04
2023-02-19T03:02:14.009Z,36.87
2023-02-19T03:05:18.071Z,36.88
2023-02-19T03:07:56.580Z,36.85
2023-02-19T03:10:40.998Z,36.86
2023-02-19T03:13:34.249Z,37.25
2023-02-19T03:16:30.102Z,37.13
2023-02-19T03:19:18.232Z,37.23
2023-02-19T03:21:51.072Z,37.27
2023-02-19T03:24:41.577Z,37.54
2023-02-19T03:27:11.241Z,37.28
2023-02-19T03:29:39.988Z,37.77
2023-02-19T03:32:32.796Z,36.94
2023-02-19T03:35:11.984Z,37.40
2023-02-19T03:37:53.430Z,37.46
2023-02-19T03:40:25.361Z,37.21
2023-02-19T03:43:00.710Z,37.33
2023-02-19T03:45:53.495Z,37.69
2023-02-19T03:48:36.767Z,37.13
2023-02-19T03:51:24.787Z,37.09
2023-02-19T03:54:01.589Z,37.81
2023-02-19T03:56:52.921Z,37.18
2023-02-19T03:59:32.265Z,37.64
2023-02-19T04:02:06.460Z,37.11
2023-02-19T04:04:38.506Z,37.17
2023-02-19T04:07:05.573Z,37.43
2023-02-19T04:09:38.061Z,37.26
2023-02-19T04:12:06.801Z,37.09
2023-02-19T04:14:42.663Z,37.25
2023-02-19T04:17:19.654Z,36.85
2023-02-19T04:19:49.989Z,37.33
2023-02-19T04:22:17.477Z,36.74
2023-02-19T04:24:50.329Z,37.11
2023-02-19T04:27:17.924Z,37.38
2023-02-19T04:29:44.616Z,37.13
2023-02-19T04:32:12.577Z,37.12
2023-02-19T04:34:39.733Z,37.27
2023-02-19T04:37:06.829Z,36.88
2023-02-19T04:39:33.701Z,37.06
2023-02-19T04:42:00.282Z,37.00
2023-02-19T04:44:26.818Z,37.20
2023-02-19T04:46:53.493Z,37.40
2023-02-19T04:49:20.036Z,36.97
2023-02-19T04:51:46.596Z,37.48
2023-02-19T04:54:13.187Z,37.55
2023-02-19T04:56:39.986Z,37.28
2023-02-19T04:59:06.875Z,37.65
2023-02-19T05:01:33.502Z,37.13
2023-02-19T05:04:00.124Z,37.31
2023-02-19T05:06:27.469Z,37.20
2023-02-19T05:08:54.075Z,37.70
2023-02-19T05:11:20.645Z,37.48
2023-02-19T05:13:47.221Z,37.62
2023-02-19T05:16:16.173Z,37.45
2023-02-19T05:18:45.190Z,37.55
2023-02-19T05:21:13.026Z,37.35
2023-02-19T05:23:39.995Z,37.68
2023-02-19T05:26:14.218Z,37.29
2023-02-19T05:28:40.765Z,37.27
2023-02-19T05:31:09.206Z,37.03
2023-02-19T05:33:37.293Z,37.36
2023-02-19T05:36:12.505Z,37.38
2023-02-19T05:38:40.452Z,37.15
2023-02-19T05:41:15.784Z,37.00
2023-02-19T05:43:44.147Z,36.93
2023-02-19T05:46:13.476Z,36.98
2023-02-19T05:48:40.910Z,36.69
2023-02-19T05:51:10.689Z,37.08
2023-02-19T05:53:38.015Z,36.99
2023-02-19T05:56:05.114Z,37.13
2023-02-19T05:58:31.702Z,37.18
2023-02-19T06:00:58.461Z,36.46
2023-02-19T06:03:25.056Z,37.22
2023-02-19T06:05:51.633Z,36.99
2023-02-19T06:08:18.330Z,37.21
2023-02-19T06:10:44.943Z,36.75
2023-02-19T06:13:11.540Z,36.81
2023-02-19T06:15:38.370Z,37.07
2023-02-19T06:18:05.120Z,36.67
2023-02-19T06:20:32.970Z,36.83
2023-02-19T06:22:59.607Z,36.85
2023-02-19T06:25:26.163Z,37.06
2023-02-19T06:27:52.703Z,36.76
2023-02-19T06:30:19.461Z,37.09
2023-02-19T06:32:46.038Z,37.31
2023-02-19T06:35:12.574Z,37.10
2023-02-19T06:37:39.156Z,37.41
2023-02-19T06:40:06.169Z,37.13
2023-02-19T06:42:33.239Z,37.24
2023-02-19T06:44:59.881Z,37.20
2023-02-19T06:47:26.465Z,37.22
2023-02-19T06:49:52.996Z,37.04
2023-02-19T06:52:19.640Z,36.96
2023-02-19T06:54:46.603Z,36.72
2023-02-19T06:57:13.192Z,37.05
2023-02-19T06:59:39.784Z,37.04
2023-02-19T07:02:06.504Z,36.98
2023-02-19T07:04:33.116Z,36.85
2023-02-19T07:07:00.236Z,37.11
2023-02-19T07:09:28.576Z,36.93
2023-02-19T07:11:55.283Z,37.10
2023-02-19T07:14:22.195Z,37.02
2023-02-19T07:16:49.210Z,36.60
2023-02-19T07:19:16.101Z,36.94
2023-02-19T07:21:42.893Z,37.16
2023-02-19T07:24:10.389Z,36.70
2023-02-19T07:26:37.001Z,37.00
2023-02-19T07:29:04.473Z,36.50
2023-02-19T07:31:31.074Z,36.88
2023-02-19T07:33:57.709Z,36.63
2023-02-19T07:36:25.419Z,36.79
2023-02-19T07:38:56.690Z,36.54
2023-02-19T07:41:24.535Z,36.99
2023-02-19T07:43:51.858Z,36.90
2023-02-19T07:46:18.445Z,36.98
2023-02-19T07:48:45.249Z,37.21
2023-02-19T07:51:17.414Z,36.88
2023-02-19T07:53:43.998Z,36.78
2023-02-19T07:56:12.937Z,36.54
2023-02-19T07:58:39.949Z,36.54
2023-02-19T08:01:12.043Z,36.25
2023-02-19T08:03:38.954Z,36.93
2023-02-19T08:06:06.569Z,36.42
2023-02-19T08:08:33.291Z,36.53
2023-02-19T08:11:22.748Z,36.08
2023-02-19T08:13:50.373Z,36.07
2023-02-19T08:16:29.647Z,36.10
2023-02-19T08:19:03.991Z,36.22
2023-02-19T08:21:31.678Z,35.90
2023-02-19T08:23:59.610Z,35.57
2023-02-19T08:26:26.190Z,35.59
2023-02-19T08:28:52.866Z,35.26
2023-02-19T08:31:19.558Z,35.01
2023-02-19T08:33:46.454Z,34.78
2023-02-19T08:36:13.014Z,33.94
2023-02-19T08:38:39.611Z,33.86
2023-02-19T08:41:08.925Z,33.76
2023-02-19T08:43:36.477Z,33.26
2023-02-19T08:46:03.693Z,32.66
2023-02-19T08:48:30.553Z,32.62
2023-02-19T08:50:59.264Z,32.88
2023-02-19T08:53:26.876Z,32.81
2023-02-19T08:55:53.622Z,32.90
2023-02-19T08:58:20.322Z,32.52
2023-02-19T09:00:47.408Z,33.15
2023-02-19T09:03:13.995Z,32.82
2023-02-19T09:05:41.134Z,32.76
2023-02-19T09:08:07.722Z,32.75
2023-02-19T09:10:34.364Z,32.63
2023-02-19T09:13:02.472Z,32.89
2023-02-19T09:15:29.741Z,32.78
2023-02-19T09:17:56.589Z,33.31
2023-02-19T09:20:23.358Z,33.55
2023-02-19T09:22:50.218Z,34.08
2023-02-19T09:25:16.804Z,33.96
2023-02-19T09:27:43.501Z,34.25
2023-02-19T09:30:10.524Z,34.42
2023-02-19T09:32:37.098Z,34.82
2023-02-19T09:35:03.776Z,33.97
2023-02-19T09:37:31.267Z,34.67
2023-02-19T09:39:59.086Z,34.53
2023-02-19T09:42:32.174Z,34.24
2023-02-19T09:45:01.140Z,34.43
2023-02-19T09:47:31.316Z,34.32
2023-02-19T09:50:06.521Z,34.01
2023-02-19T09:52:42.763Z,33.75
2023-02-19T09:55:23.991Z,34.74
2023-02-19T09:57:51.894Z,34.84
2023-02-19T10:00:24.997Z,35.08
2023-02-19T10:02:53.995Z,35.17
2023-02-19T10:05:22.727Z,34.37
2023-02-19T10:07:53.060Z,35.03
2023-02-19T10:10:30.062Z,34.34
2023-02-19T10:13:11.441Z,34.47
2023-02-19T10:15:46.841Z,33.47
2023-02-19T10:18:17.030Z,33.91
2023-02-19T10:20:43.820Z,33.86
2023-02-19T10:23:13.362Z,34.29
2023-02-19T10:25:45.840Z,30.27
2023-02-19T10:28:19.076Z,28.75
2023-02-19T10:30:51.626Z,30.90
2023-02-19T10:33:18.469Z,32.60
2023-02-19T10:35:56.213Z,34.01
2023-02-19T10:38:38.535Z,34.14
2023-02-19T10:41:14.105Z,30.98
2023-02-19T10:43:45.771Z,31.33
2023-02-19T10:46:19.056Z,31.20
2023-02-19T10:48:52.204Z,28.30
2023-02-19T10:51:21.674Z,29.08
2023-02-19T10:53:50.633Z,30.58
2023-02-19T10:56:28.895Z,31.85
2023-02-19T10:58:55.494Z,32.70
2023-02-19T11:01:25.686Z,33.49
2023-02-19T11:04:13.087Z,33.49
2023-02-19T11:06:40.228Z,33.97
2023-02-19T11:09:20.412Z,34.34
2023-02-19T11:11:52.214Z,34.70
2023-02-19T11:14:22.699Z,34.74
2023-02-19T11:17:00.104Z,34.63
2023-02-19T11:19:44.216Z,34.21
2023-02-19T11:22:29.620Z,34.37
2023-02-19T11:25:01.206Z,34.38
2023-02-19T11:27:27.749Z,34.61
2023-02-19T11:29:54.323Z,34.04
2023-02-19T11:32:21.050Z,34.09
2023-02-19T11:34:48.290Z,33.96
2023-02-19T11:37:17.045Z,34.38
2023-02-19T11:39:46.520Z,34.56
2023-02-19T11:42:36.700Z,34.73
2023-02-19T11:45:24.471Z,34.84
2023-02-19T11:48:07.013Z,35.27
2023-02-19T11:51:03.511Z,35.24
2023-02-19T11:53:37.283Z,34.90
2023-02-19T11:56:33.981Z,34.92
2023-02-19T11:59:05.339Z,33.80
2023-02-19T12:02:09.456Z,33.92
2023-02-19T12:04:47.780Z,34.65
2023-02-19T12:07:30.013Z,34.61
2023-02-19T12:10:21.173Z,35.17
2023-02-19T12:13:10.649Z,34.75
2023-02-19T12:15:46.155Z,34.37
2023-02-19T12:18:37.586Z,34.65
2023-02-19T12:21:42.581Z,33.59
2023-02-19T12:24:12.072Z,34.31
2023-02-19T12:27:15.983Z,33.88
2023-02-19T12:29:51.480Z,33.31
2023-02-19T12:32:47.461Z,32.61
2023-02-19T12:35:35.699Z,33.97
2023-02-19T12:38:23.573Z,33.78
2023-02-19T12:41:13.183Z,34.00
2023-02-19T12:44:09.816Z,33.53
2023-02-19T12:46:39.903Z,32.44
2023-02-19T12:49:39.290Z,31.35
2023-02-19T12:52:24.766Z,31.20
2023-02-19T12:54:56.249Z,32.58
2023-02-19T12:57:36.905Z,33.65
2023-02-19T13:00:07.646Z,33.65
2023-02-19T13:02:56.730Z,34.32
2023-02-19T13:05:46.533Z,34.82
2023-02-19T13:09:03.533Z,34.67
2023-02-19T13:11:41.148Z,33.86
2023-02-19T13:14:34.295Z,34.81
2023-02-19T13:17:09.357Z,34.67
2023-02-19T13:19:37.289Z,34.40
2023-02-19T13:22:37.805Z,34.52
2023-02-19T13:25:07.666Z,33.79
2023-02-19T13:27:43.086Z,34.06
2023-02-19T13:30:42.155Z,33.39
2023-02-19T13:33:37.794Z,33.80
2023-02-19T13:36:24.573Z,33.82
2023-02-19T13:38:51.782Z,32.77
2023-02-19T13:41:40.753Z,32.53
2023-02-19T13:44:16.993Z,31.80
2023-02-19T13:46:45.703Z,31.98
2023-02-19T13:49:36.522Z,32.19
2023-02-19T13:52:29.206Z,32.12
2023-02-19T13:55:33.053Z,32.70
2023-02-19T13:58:33.800Z,32.94
2023-02-19T14:01:11.862Z,33.29
2023-02-19T14:04:06.633Z,33.58
2023-02-19T14:10:51.960Z,34.76
2023-02-19T14:13:46.268Z,34.58
2023-02-19T14:16:39.054Z,34.23
2023-02-19T14:19:33.651Z,34.67
2023-02-19T14:22:00.230Z,34.43
2023-02-19T14:24:27.090Z,33.45
2023-02-19T14:26:56.749Z,33.53
2023-02-19T14:29:23.446Z,34.10
2023-02-19T14:31:50.330Z,34.27
2023-02-19T14:34:22.736Z,34.16
2023-02-19T14:37:01.545Z,34.93
2023-02-19T14:39:35.222Z,34.94
2023-02-19T14:42:22.875Z,34.94
2023-02-19T14:44:57.277Z,35.30
2023-02-19T14:47:27.496Z,34.93
2023-02-19T14:50:22.634Z,34.65
2023-02-19T14:52:54.496Z,34.35
2023-02-19T14:55:27.235Z,33.89
2023-02-19T14:57:56.618Z,33.53
2023-02-19T15:00:23.216Z,33.41
2023-02-19T15:02:51.631Z,33.79
2023-02-19T15:05:30.821Z,33.94
2023-02-19T15:08:06.416Z,34.06
2023-02-19T15:10:35.076Z,33.57
2023-02-19T15:13:06.325Z,34.29
2023-02-19T15:15:37.465Z,34.14
2023-02-19T15:18:05.449Z,34.48
2023-02-19T15:20:37.886Z,34.34
2023-02-19T15:23:10.665Z,34.80
2023-02-19T15:25:38.651Z,34.76
2023-02-19T15:28:23.451Z,34.33
2023-02-19T15:30:51.171Z,34.62
2023-02-19T15:33:20.405Z,35.23
2023-02-19T15:35:55.990Z,34.55
2023-02-19T15:38:22.906Z,34.92
2023-02-19T15:40:50.140Z,35.08
2023-02-19T15:43:30.685Z,35.13
2023-02-19T15:46:17.788Z,34.99
2023-02-19T15:49:09.443Z,35.03
2023-02-19T15:51:43.835Z,35.04
2023-02-19T15:54:27.187Z,34.97
2023-02-19T15:57:00.370Z,34.98
2023-02-19T15:59:40.039Z,35.30
2023-02-19T16:02:11.890Z,34.94
2023-02-19T16:04:39.912Z,35.11
2023-02-19T16:07:06.501Z,34.74
2023-02-19T16:09:40.037Z,34.90
2023-02-19T16:12:24.671Z,34.94
2023-02-19T16:14:51.254Z,35.25
2023-02-19T16:17:23.000Z,34.97
2023-02-19T16:19:56.768Z,34.81
2023-02-19T16:22:27.114Z,34.84
2023-02-19T16:24:59.646Z,35.24
2023-02-19T16:27:32.774Z,35.35
2023-02-19T16:30:04.575Z,35.32
2023-02-19T16:32:31.189Z,34.94
2023-02-19T16:34:57.812Z,35.22
2023-02-19T16:37:38.447Z,35.41
2023-02-19T16:40:07.765Z,35.39
2023-02-19T16:42:55.245Z,35.85
2023-02-19T16:45:21.832Z,35.42
2023-02-19T16:47:48.576Z,35.66
2023-02-19T16:50:18.487Z,35.47
2023-02-19T16:52:56.533Z,35.76
2023-02-19T16:55:23.617Z,35.80
2023-02-19T16:57:50.323Z,35.39
2023-02-19T17:00:19.788Z,35.95
2023-02-19T17:02:51.540Z,35.61
2023-02-19T17:05:19.581Z,35.93
2023-02-19T17:07:46.369Z,36.29
2023-02-19T17:10:25.084Z,35.90
2023-02-19T17:12:52.666Z,35.76
2023-02-19T17:15:19.274Z,36.19
2023-02-19T17:17:45.825Z,36.01
2023-02-19T17:20:27.412Z,35.67
2023-02-19T17:22:55.578Z,36.27
2023-02-19T17:25:22.795Z,36.19
2023-02-19T17:27:49.573Z,35.43
2023-02-19T17:30:31.302Z,35.48
2023-02-19T17:32:57.938Z,35.31
2023-02-19T17:35:24.763Z,35.75
2023-02-19T17:37:53.332Z,35.81
2023-02-19T17:40:32.154Z,35.39
2023-02-19T17:42:59.876Z,35.46
2023-02-19T17:45:26.498Z,35.38
2023-02-19T17:47:53.160Z,35.88
2023-02-19T17:50:26.740Z,35.68
2023-02-19T17:52:53.333Z,35.62
2023-02-19T17:55:20.062Z,35.81
2023-02-19T17:57:48.708Z,35.79
2023-02-19T18:00:18.759Z,36.02
2023-02-19T18:02:45.316Z,36.11
2023-02-19T18:05:11.954Z,35.77
2023-02-19T18:07:38.630Z,35.65
2023-02-19T18:10:07.266Z,35.93
2023-02-19T18:12:33.805Z,36.30
2023-02-19T18:15:00.457Z,35.87
2023-02-19T18:17:27.247Z,36.16
2023-02-19T18:19:54.177Z,36.39
2023-02-19T18:22:20.902Z,35.85
2023-02-19T18:24:49.746Z,36.27
2023-02-19T18:27:18.501Z,36.08
2023-02-19T18:29:48.632Z,36.25
2023-02-19T18:32:15.345Z,36.18
2023-02-19T18:34:41.906Z,36.14
2023-02-19T18:37:08.472Z,35.86
2023-02-19T18:39:34.996Z,36.17
2023-02-19T18:42:02.237Z,36.04
2023-02-19T18:44:28.882Z,35.84
2023-02-19T18:46:55.498Z,35.88
2023-02-19T18:49:22.175Z,35.70
2023-02-19T18:51:48.866Z,36.27
2023-02-19T18:54:15.657Z,36.34
2023-02-19T18:56:46.609Z,35.51
2023-02-19T18:59:14.389Z,35.77
2023-02-19T19:01:41.343Z,35.88
2023-02-19T19:04:08.169Z,36.03
2023-02-19T19:06:37.762Z,35.89
2023-02-19T19:09:05.376Z,35.56
2023-02-19T19:11:32.439Z,35.48
2023-02-19T19:13:59.017Z,35.80
2023-02-19T19:16:27.659Z,35.91
2023-02-19T19:18:55.104Z,35.43
2023-02-19T19:21:21.968Z,36.03
2023-02-19T19:23:48.726Z,35.98
2023-02-19T19:26:15.963Z,35.63
2023-02-19T19:28:46.492Z,36.01
2023-02-19T19:31:18.485Z,35.81
2023-02-19T19:33:47.562Z,35.90
2023-02-19T19:36:18.344Z,36.09
2023-02-19T19:38:45.658Z,36.09
2023-02-19T19:41:17.564Z,36.24
2023-02-19T19:43:44.190Z,36.32
2023-02-19T19:46:11.168Z,35.78
2023-02-19T19:48:40.830Z,35.73
2023-02-19T19:51:08.068Z,35.87
2023-02-19T19:53:34.633Z,36.21
2023-02-19T19:56:01.442Z,35.52
2023-02-19T19:58:28.103Z,35.77
2023-02-19T20:00:54.762Z,36.09
2023-02-19T20:03:21.337Z,35.89
2023-02-19T20:05:50.305Z,35.55
2023-02-19T20:08:18.022Z,35.84
2023-02-19T20:10:45.502Z,35.64
2023-02-19T20:13:16.526Z,35.57
2023-02-19T20:15:43.102Z,35.44
2023-02-19T20:18:09.870Z,35.43
2023-02-19T20:20:36.471Z,35.95
2023-02-19T20:23:06.195Z,35.38
2023-02-19T20:25:32.775Z,35.37
2023-02-19T20:27:59.598Z,35.42
2023-02-19T20:30:26.225Z,35.96
2023-02-19T20:32:53.732Z,35.27
2023-02-19T20:35:20.391Z,35.89
2023-02-19T20:37:48.081Z,35.38
2023-02-19T20:40:18.151Z,35.78
2023-02-19T20:42:44.752Z,36.00
2023-02-19T20:45:11.425Z,35.88
2023-02-19T20:47:40.188Z,35.33
2023-02-19T20:50:07.809Z,35.64
2023-02-19T20:52:34.373Z,35.57
2023-02-19T20:55:00.920Z,35.34
2023-02-19T20:57:27.606Z,35.75
2023-02-19T20:59:54.206Z,35.74
2023-02-19T21:02:29.196Z,35.59
2023-02-19T21:04:56.797Z,36.11
2023-02-19T21:07:24.883Z,36.08
2023-02-19T21:09:52.402Z,36.10
2023-02-19T21:12:20.794Z,35.90
2023-02-19T21:14:47.497Z,36.04
2023-02-19T21:17:14.172Z,35.73
2023-02-19T21:19:40.854Z,35.89
2023-02-19T21:22:07.507Z,35.86
2023-02-19T21:24:34.184Z,35.52
2023-02-19T21:27:00.779Z,36.02
2023-02-19T21:29:27.426Z,35.92
2023-02-19T21:31:56.331Z,35.95
2023-02-19T21:34:26.526Z,35.97
2023-02-19T21:36:53.837Z,35.90
2023-02-19T21:39:22.686Z,35.93
2023-02-19T21:41:49.377Z,35.45
2023-02-19T21:44:16.202Z,35.55
2023-02-19T21:46:42.861Z,35.31
2023-02-19T21:49:10.392Z,35.70
2023-02-19T21:51:42.495Z,35.68
2023-02-19T21:54:17.940Z,35.27
2023-02-19T21:56:44.832Z,35.59
2023-02-19T21:59:11.444Z,35.67
2023-02-19T22:01:42.118Z,35.69
2023-02-19T22:04:11.148Z,35.47
2023-02-19T22:06:39.553Z,35.42
2023-02-19T22:09:08.064Z,35.43
2023-02-19T22:11:34.718Z,35.54
2023-02-19T22:14:01.355Z,35.27
2023-02-19T22:16:28.828Z,35.83
2023-02-19T22:18:57.613Z,35.74
2023-02-19T22:21:27.276Z,35.79
2023-02-19T22:23:54.917Z,35.46
2023-02-19T22:26:24.420Z,35.22
2023-02-19T22:28:51.550Z,35.88
2023-02-19T22:31:20.467Z,35.65
2023-02-19T22:33:47.135Z,35.77
2023-02-19T22:36:21.550Z,35.88
2023-02-19T22:38:49.145Z,36.03
2023-02-19T22:41:17.632Z,35.77
2023-02-19T22:43:45.314Z,35.58
2023-02-19T22:46:15.373Z,35.34
2023-02-19T22:48:42.528Z,35.51
2023-02-19T22:51:14.223Z,35.15
2023-02-19T22:53:52.349Z,35.48
2023-02-19T22:56:20.787Z,35.41
2023-02-19T22:58:47.328Z,35.53
2023-02-19T23:01:14.999Z,35.68
2023-02-19T23:03:55.579Z,35.34
2023-02-19T23:06:33.412Z,35.89
2023-02-19T23:09:04.828Z,35.60
2023-02-19T23:11:34.209Z,35.41
2023-02-19T23:14:00.914Z,35.10
2023-02-19T23:16:27.884Z,35.03
2023-02-19T23:18:55.196Z,34.88
2023-02-19T23:21:22.842Z,35.41
2023-02-19T23:23:49.583Z,35.10
2023-02-19T23:26:16.617Z,35.17
2023-02-19T23:28:44.295Z,35.24
2023-02-19T23:31:11.766Z,35.29
2023-02-19T23:33:38.451Z,34.81
2023-02-19T23:36:06.208Z,34.96
2023-02-19T23:38:32.804Z,35.39
2023-02-19T23:40:59.967Z,35.15
2023-02-19T23:43:26.513Z,35.07
2023-02-19T23:45:53.312Z,35.42
2023-02-19T23:48:19.953Z,35.33
2023-02-19T23:50:46.548Z,34.94
2023-02-19T23:53:13.140Z,34.99
2023-02-19T23:55:39.729Z,35.28
2023-02-19T23:58:06.376Z,34.97
